createdAt,value
2022-11-28T00:01:21.182Z,1.15
2022-11-28T00:03:49.372Z,1.40
2022-11-28T00:08:45.419Z,1.48
2022-11-28T00:11:15.776Z,1.63
2022-11-28T00:13:43.866Z,1.80
2022-11-28T00:16:17.249Z,1.08
2022-11-28T00:18:46.501Z,1.20
2022-11-28T00:21:15.865Z,0.93
2022-11-28T00:23:45.198Z,1.40
2022-11-28T00:26:16.622Z,1.10
2022-11-28T00:28:44.644Z,1.48
2022-11-28T00:31:14.920Z,1.90
2022-11-28T00:33:43.020Z,1.63
2022-11-28T00:36:13.402Z,1.85
2022-11-28T00:38:42.557Z,2.10
2022-11-28T00:41:13.956Z,1.95
2022-11-28T00:43:42.503Z,2.20
2022-11-28T00:46:11.438Z,2.20
2022-11-28T00:48:39.267Z,1.90
2022-11-28T00:51:07.954Z,2.55
2022-11-28T00:53:37.584Z,1.90
2022-11-28T00:56:06.661Z,2.30
2022-11-28T00:58:35.574Z,1.83
2022-11-28T01:01:09.322Z,1.80
2022-11-28T01:03:37.859Z,1.58
2022-11-28T01:06:06.036Z,1.88
2022-11-28T01:08:34.458Z,1.73
2022-11-28T01:11:04.715Z,2.53
2022-11-28T01:13:32.617Z,2.17
2022-11-28T01:16:00.472Z,1.70
2022-11-28T01:18:28.269Z,2.30
2022-11-28T01:20:56.059Z,1.15
2022-11-28T01:23:23.831Z,2.55
2022-11-28T01:25:51.759Z,2.33
2022-11-28T01:28:20.991Z,1.83
2022-11-28T01:30:49.033Z,2.28
2022-11-28T01:33:16.985Z,2.38
2022-11-28T01:35:54.589Z,2.20
2022-11-28T01:38:22.374Z,2.25
2022-11-28T01:40:50.725Z,3.08
2022-11-28T01:45:48.738Z,1.98
2022-11-28T01:48:20.722Z,3.33
2022-11-28T01:50:51.048Z,2.53
2022-11-28T01:53:19.424Z,3.05
2022-11-28T01:58:18.867Z,3.38
2022-11-28T02:00:49.285Z,3.92
2022-11-28T02:03:22.768Z,3.65
2022-11-28T02:05:52.234Z,4.05
2022-11-28T02:08:20.040Z,3.15
2022-11-28T02:11:08.029Z,4.43
2022-11-28T02:13:48.097Z,3.30
2022-11-28T02:16:36.826Z,3.55
2022-11-28T02:19:32.968Z,2.85
2022-11-28T02:22:06.571Z,2.70
2022-11-28T02:25:12.541Z,2.63
2022-11-28T02:28:13.552Z,3.25
2022-11-28T02:30:55.604Z,3.22
2022-11-28T02:33:28.923Z,3.03
2022-11-28T02:36:04.745Z,3.00
2022-11-28T02:38:43.374Z,3.85
2022-11-28T02:41:20.056Z,3.38
2022-11-28T02:44:01.441Z,3.55
2022-11-28T02:46:39.149Z,3.38
2022-11-28T02:49:14.058Z,3.63
2022-11-28T02:51:46.941Z,4.13
2022-11-28T02:54:16.726Z,3.70
2022-11-28T02:56:49.342Z,3.53
2022-11-28T02:59:33.575Z,3.67
2022-11-28T03:02:02.589Z,4.20
2022-11-28T03:04:45.186Z,3.47
2022-11-28T03:07:28.037Z,3.65
2022-11-28T03:10:08.523Z,3.05
2022-11-28T03:12:49.721Z,3.40
2022-11-28T03:17:55.917Z,3.45
2022-11-28T03:20:32.589Z,3.45
2022-11-28T03:23:08.600Z,4.35
2022-11-28T03:25:46.553Z,3.15
2022-11-28T03:28:20.726Z,3.90
2022-11-28T03:30:54.011Z,2.65
2022-11-28T03:33:25.092Z,2.67
2022-11-28T03:35:59.716Z,3.08
2022-11-28T03:38:31.178Z,1.90
2022-11-28T03:41:03.694Z,2.03
2022-11-28T03:43:37.817Z,1.60
2022-11-28T03:46:09.613Z,1.83
2022-11-28T03:48:43.131Z,1.95
2022-11-28T03:51:16.795Z,2.45
2022-11-28T03:53:52.025Z,2.17
2022-11-28T03:56:26.349Z,2.28
2022-11-28T03:58:59.393Z,1.73
2022-11-28T04:01:33.845Z,2.08
2022-11-28T04:04:15.390Z,1.80
2022-11-28T04:06:55.217Z,1.55
2022-11-28T04:09:40.712Z,1.23
2022-11-28T04:12:14.257Z,1.17
2022-11-28T04:14:48.540Z,1.90
2022-11-28T04:17:20.675Z,1.85
2022-11-28T04:19:54.526Z,2.10
2022-11-28T04:22:29.676Z,1.40
2022-11-28T04:25:02.259Z,1.40
2022-11-28T04:27:36.194Z,1.05
2022-11-28T04:30:06.608Z,1.10
2022-11-28T04:32:38.083Z,1.00
2022-11-28T04:35:09.568Z,1.30
2022-11-28T04:37:40.962Z,1.23
2022-11-28T04:40:12.620Z,1.27
2022-11-28T04:42:47.679Z,1.30
2022-11-28T04:45:25.393Z,1.90
2022-11-28T04:47:53.873Z,2.75
2022-11-28T04:50:24.944Z,2.50
2022-11-28T04:52:57.957Z,2.63
2022-11-28T04:55:34.632Z,2.47
2022-11-28T04:58:09.976Z,1.98
2022-11-28T05:00:38.742Z,1.80
2022-11-28T05:03:07.627Z,2.40
2022-11-28T05:05:44.383Z,2.00
2022-11-28T05:08:13.931Z,2.78
2022-11-28T05:10:42.423Z,2.22
2022-11-28T05:13:10.623Z,2.38
2022-11-28T05:15:38.491Z,2.13
2022-11-28T05:18:06.925Z,2.70
2022-11-28T05:20:34.965Z,2.28
2022-11-28T05:23:02.769Z,2.20
2022-11-28T05:25:31.920Z,2.85
2022-11-28T05:27:59.847Z,2.42
2022-11-28T05:30:27.679Z,3.30
2022-11-28T05:32:55.637Z,2.58
2022-11-28T05:35:23.634Z,1.50
2022-11-28T05:37:51.394Z,2.20
2022-11-28T05:40:19.199Z,1.23
2022-11-28T05:42:48.333Z,2.80
2022-11-28T05:45:16.122Z,2.35
2022-11-28T05:47:44.026Z,2.22
2022-11-28T05:50:12.659Z,1.83
2022-11-28T05:52:40.418Z,2.08
2022-11-28T05:55:08.955Z,1.90
2022-11-28T05:57:36.855Z,1.20
2022-11-28T06:00:07.505Z,2.60
2022-11-28T06:02:36.731Z,2.00
2022-11-28T06:05:21.325Z,2.15
2022-11-28T06:07:54.403Z,1.63
2022-11-28T06:10:22.668Z,1.90
2022-11-28T06:12:50.873Z,2.00
2022-11-28T06:15:20.123Z,1.35
2022-11-28T06:17:48.017Z,1.65
2022-11-28T06:20:15.804Z,1.67
2022-11-28T06:22:43.576Z,1.20
2022-11-28T06:25:11.510Z,1.60
2022-11-28T06:27:39.237Z,1.17
2022-11-28T06:30:08.457Z,1.48
2022-11-28T06:32:37.731Z,1.35
2022-11-28T06:35:05.989Z,1.23
2022-11-28T06:37:33.920Z,2.17
2022-11-28T06:40:01.902Z,1.55
2022-11-28T06:42:29.690Z,1.60
2022-11-28T06:44:57.483Z,1.42
2022-11-28T06:47:25.402Z,1.45
2022-11-28T06:49:54.542Z,1.30
2022-11-28T06:52:22.350Z,1.35
2022-11-28T06:54:50.786Z,1.23
2022-11-28T06:57:18.522Z,1.35
2022-11-28T06:59:46.265Z,1.77
2022-11-28T07:02:14.186Z,1.10
2022-11-28T07:04:42.170Z,1.23
2022-11-28T07:07:16.103Z,1.13
2022-11-28T07:09:45.220Z,1.00
2022-11-28T07:12:13.309Z,1.02
2022-11-28T07:14:41.262Z,1.02
2022-11-28T07:17:09.081Z,0.90
2022-11-28T07:19:36.959Z,1.33
2022-11-28T07:22:04.857Z,0.90
2022-11-28T07:24:34.110Z,0.85
2022-11-28T07:27:01.860Z,0.98
2022-11-28T07:29:35.870Z,1.17
2022-11-28T07:32:05.597Z,1.05
2022-11-28T07:34:33.864Z,1.15
2022-11-28T07:37:01.627Z,0.47
2022-11-28T07:39:29.482Z,0.70
2022-11-28T07:41:58.705Z,0.60
2022-11-28T07:44:26.498Z,0.65
2022-11-28T07:46:54.450Z,0.55
2022-11-28T07:49:22.320Z,0.60
2022-11-28T07:51:50.635Z,0.63
2022-11-28T07:54:19.510Z,1.00
2022-11-28T07:59:37.157Z,0.95
2022-11-28T08:02:05.019Z,0.65
2022-11-28T08:04:33.025Z,0.82
2022-11-28T08:07:00.865Z,1.20
2022-11-28T08:09:28.620Z,0.90
2022-11-28T08:11:56.459Z,0.75
2022-11-28T08:14:24.574Z,1.15
2022-11-28T08:16:53.806Z,1.20
2022-11-28T08:19:24.712Z,1.05
2022-11-28T08:21:52.944Z,0.82
2022-11-28T08:24:20.818Z,0.52
2022-11-28T08:26:48.621Z,1.08
2022-11-28T08:29:16.562Z,0.98
2022-11-28T08:31:47.203Z,1.08
2022-11-28T08:34:16.422Z,1.20
2022-11-28T08:36:44.453Z,1.35
2022-11-28T08:39:28.275Z,1.17
2022-11-28T08:41:58.975Z,1.40
2022-11-28T08:44:30.423Z,1.10
2022-11-28T08:46:58.439Z,0.82
2022-11-28T08:49:27.775Z,1.10
2022-11-28T08:51:55.670Z,1.65
2022-11-28T08:54:23.531Z,1.33
2022-11-28T08:56:52.366Z,1.10
2022-11-28T08:59:20.226Z,1.27
2022-11-28T09:01:48.139Z,1.25
2022-11-28T09:04:16.048Z,1.20
2022-11-28T09:06:45.381Z,1.70
2022-11-28T09:09:13.591Z,1.30
2022-11-28T09:11:41.866Z,1.38
2022-11-28T09:14:10.032Z,1.35
2022-11-28T09:16:39.149Z,2.03
2022-11-28T09:19:09.371Z,0.95
2022-11-28T09:21:37.386Z,1.60
2022-11-28T09:24:07.870Z,2.05
2022-11-28T09:26:35.617Z,1.05
2022-11-28T09:29:03.378Z,1.42
2022-11-28T09:31:31.261Z,1.67
2022-11-28T09:33:59.130Z,1.52
2022-11-28T09:36:28.631Z,1.42
2022-11-28T09:38:56.409Z,1.85
2022-11-28T09:41:39.812Z,1.42
2022-11-28T09:44:14.383Z,1.65
2022-11-28T09:46:43.632Z,1.33
2022-11-28T09:49:22.645Z,1.15
2022-11-28T09:51:54.761Z,2.10
2022-11-28T09:54:28.930Z,1.73
2022-11-28T09:56:59.621Z,2.28
2022-11-28T09:59:29.164Z,1.95
2022-11-28T10:02:05.866Z,2.33
2022-11-28T10:04:42.705Z,2.53
2022-11-28T10:07:20.226Z,2.25
2022-11-28T10:09:58.275Z,4.10
2022-11-28T10:12:41.499Z,2.75
2022-11-28T10:15:20.775Z,4.68
2022-11-28T10:17:56.685Z,3.58
2022-11-28T10:20:28.275Z,5.22
2022-11-28T10:22:59.404Z,4.80
2022-11-28T10:25:31.548Z,4.85
2022-11-28T10:28:00.857Z,4.40
2022-11-28T10:30:33.954Z,4.18
2022-11-28T10:33:10.640Z,6.50
2022-11-28T10:35:45.633Z,5.40
2022-11-28T10:38:14.605Z,6.05
2022-11-28T10:40:48.308Z,6.88
2022-11-28T10:43:27.522Z,6.80
2022-11-28T10:46:04.957Z,6.05
2022-11-28T10:48:46.067Z,3.78
2022-11-28T10:51:26.026Z,3.03
2022-11-28T10:54:05.573Z,2.83
2022-11-28T10:56:44.680Z,3.78
2022-11-28T10:59:27.240Z,2.30
2022-11-28T11:01:56.381Z,2.38
2022-11-28T11:04:27.248Z,2.97
2022-11-28T11:07:10.599Z,2.38
2022-11-28T11:09:43.619Z,2.85
2022-11-28T11:12:18.642Z,2.25
2022-11-28T11:17:36.363Z,2.25
2022-11-28T11:20:28.154Z,2.33
2022-11-28T11:22:57.883Z,2.80
2022-11-28T11:25:27.028Z,3.50
2022-11-28T11:27:56.847Z,3.85
2022-11-28T11:30:31.203Z,4.95
2022-11-28T11:33:01.555Z,4.22
2022-11-28T11:35:34.125Z,4.32
2022-11-28T11:38:18.090Z,3.67
2022-11-28T11:40:46.506Z,4.18
2022-11-28T11:43:29.126Z,4.20
2022-11-28T11:46:10.762Z,3.88
2022-11-28T11:48:40.984Z,4.22
2022-11-28T11:51:21.677Z,3.88
2022-11-28T11:53:49.833Z,2.75
2022-11-28T11:56:18.877Z,2.83
2022-11-28T11:58:50.836Z,2.90
2022-11-28T12:01:22.783Z,3.65
2022-11-28T12:03:57.088Z,4.25
2022-11-28T12:06:29.527Z,3.45
2022-11-28T12:09:05.484Z,3.83
2022-11-28T12:11:40.183Z,4.60
2022-11-28T12:14:28.139Z,4.72
2022-11-28T12:20:12.380Z,4.82
2022-11-28T12:22:53.497Z,5.22
2022-11-28T12:25:26.853Z,4.78
2022-11-28T12:28:06.937Z,4.07
2022-11-28T12:30:51.552Z,3.92
2022-11-28T12:33:37.063Z,3.78
2022-11-28T12:36:12.217Z,2.83
2022-11-28T12:38:56.392Z,2.40
2022-11-28T12:41:39.863Z,3.38
2022-11-28T12:44:19.042Z,3.05
2022-11-28T12:46:54.937Z,3.10
2022-11-28T12:49:36.010Z,3.20
2022-11-28T12:52:13.934Z,2.97
2022-11-28T12:55:04.515Z,3.13
2022-11-28T12:57:39.803Z,3.03
2022-11-28T13:00:14.312Z,3.10
2022-11-28T13:02:56.184Z,2.13
2022-11-28T13:05:35.820Z,3.00
2022-11-28T13:08:48.146Z,2.60
2022-11-28T13:11:31.689Z,2.63
2022-11-28T13:14:06.291Z,2.08
2022-11-28T13:16:43.753Z,2.53
2022-11-28T13:19:18.696Z,3.80
2022-11-28T13:21:54.304Z,2.70
2022-11-28T13:24:28.332Z,3.33
2022-11-28T13:27:02.584Z,3.38
2022-11-28T13:29:38.623Z,3.20
2022-11-28T13:32:14.742Z,2.90
2022-11-28T13:34:43.263Z,1.73
2022-11-28T13:40:17.910Z,2.50
2022-11-28T13:43:08.579Z,2.80
2022-11-28T13:45:39.611Z,2.85
2022-11-28T13:51:32.528Z,2.20
2022-11-28T13:54:48.714Z,2.63
2022-11-28T13:57:29.158Z,2.28
2022-11-28T14:00:04.980Z,1.85
2022-11-28T14:02:41.843Z,2.00
2022-11-28T14:05:26.567Z,2.25
2022-11-28T14:07:56.304Z,2.42
2022-11-28T14:10:40.959Z,2.28
2022-11-28T14:13:26.625Z,2.67
2022-11-28T14:16:07.943Z,2.15
2022-11-28T14:18:57.732Z,1.98
2022-11-28T14:21:34.040Z,1.92
2022-11-28T14:24:13.242Z,1.75
2022-11-28T14:26:43.151Z,1.63
2022-11-28T14:29:23.552Z,1.70
2022-11-28T14:32:21.817Z,1.80
2022-11-28T14:34:44.341Z,1.73
2022-11-28T14:37:57.639Z,1.83
2022-11-28T14:43:29.279Z,1.33
2022-11-28T14:46:26.997Z,1.88
2022-11-28T14:49:22.400Z,1.92
2022-11-28T14:52:30.754Z,1.88
2022-11-28T14:54:55.797Z,2.03
2022-11-28T14:57:27.061Z,1.88
2022-11-28T14:59:56.197Z,1.92
2022-11-28T15:02:53.870Z,1.85
2022-11-28T15:05:34.978Z,2.10
2022-11-28T15:08:35.648Z,1.83
2022-11-28T15:11:30.101Z,1.70
2022-11-28T15:14:09.543Z,1.90
2022-11-28T15:16:46.624Z,1.92
2022-11-28T15:19:25.828Z,1.63
2022-11-28T15:21:55.211Z,1.38
2022-11-28T15:24:25.841Z,1.70
2022-11-28T15:26:57.428Z,1.35
2022-11-28T15:29:27.705Z,1.83
2022-11-28T15:31:57.977Z,1.50
2022-11-28T15:34:30.169Z,2.28
2022-11-28T15:37:00.702Z,1.42
2022-11-28T15:39:34.842Z,1.60
2022-11-28T15:42:05.650Z,1.55
2022-11-28T15:44:34.045Z,1.90
2022-11-28T15:49:33.081Z,1.52
2022-11-28T15:52:03.294Z,1.58
2022-11-28T15:54:37.668Z,1.98
2022-11-28T15:57:06.487Z,2.00
2022-11-28T15:59:34.858Z,1.40
2022-11-28T16:04:33.985Z,2.15
2022-11-28T16:07:02.603Z,2.03
2022-11-28T16:09:35.603Z,3.15
2022-11-28T16:12:05.669Z,5.53
2022-11-28T16:14:36.713Z,8.52
2022-11-28T16:17:20.825Z,8.02
2022-11-28T16:19:52.429Z,7.15
2022-11-28T16:22:22.019Z,6.05
2022-11-28T16:24:51.645Z,3.88
2022-11-28T16:27:33.969Z,3.25
2022-11-28T16:30:02.959Z,2.90
2022-11-28T16:32:38.553Z,3.13
2022-11-28T16:35:12.477Z,3.50
2022-11-28T16:37:40.733Z,3.90
2022-11-28T16:40:17.203Z,4.00
2022-11-28T16:42:53.327Z,3.10
2022-11-28T16:45:25.208Z,4.07
2022-11-28T16:47:56.515Z,3.33
2022-11-28T16:50:26.025Z,3.55
2022-11-28T16:52:54.693Z,2.95
2022-11-28T16:55:49.458Z,4.05
2022-11-28T16:58:20.103Z,4.47
2022-11-28T17:00:59.305Z,3.67
2022-11-28T17:03:46.101Z,3.88
2022-11-28T17:06:24.501Z,4.13
2022-11-28T17:08:52.408Z,5.03
2022-11-28T17:11:23.243Z,4.05
2022-11-28T17:13:51.959Z,3.08
2022-11-28T17:16:22.085Z,3.90
2022-11-28T17:18:50.652Z,3.22
2022-11-28T17:21:25.152Z,3.38
2022-11-28T17:23:54.373Z,4.45
2022-11-28T17:26:22.148Z,3.17
2022-11-28T17:28:49.979Z,3.05
2022-11-28T17:31:17.994Z,4.55
2022-11-28T17:33:45.958Z,4.70
2022-11-28T17:36:13.831Z,3.40
2022-11-28T17:38:41.603Z,3.47
2022-11-28T17:41:14.438Z,2.90
2022-11-28T17:43:43.042Z,2.88
2022-11-28T17:46:11.298Z,3.33
2022-11-28T17:48:39.221Z,2.08
2022-11-28T17:51:07.164Z,2.50
2022-11-28T17:53:35.077Z,3.25
2022-11-28T17:56:03.082Z,2.90
2022-11-28T17:58:32.946Z,3.17
2022-11-28T18:01:01.237Z,3.42
2022-11-28T18:05:57.265Z,2.97
2022-11-28T18:08:25.113Z,3.78
2022-11-28T18:11:03.742Z,4.05
2022-11-28T18:13:33.137Z,4.63
2022-11-28T18:16:01.081Z,4.07
2022-11-28T18:18:29.765Z,4.93
2022-11-28T18:20:57.535Z,4.93
2022-11-28T18:23:25.335Z,4.03
2022-11-28T18:25:53.355Z,3.97
2022-11-28T18:28:22.167Z,3.83
2022-11-28T18:30:51.422Z,5.03
2022-11-28T18:33:19.303Z,3.80
2022-11-28T18:35:47.151Z,3.45
2022-11-28T18:38:14.996Z,3.33
2022-11-28T18:40:42.855Z,4.88
2022-11-28T18:43:10.708Z,4.60
2022-11-28T18:45:38.597Z,4.47
2022-11-28T18:48:08.108Z,4.28
2022-11-28T18:50:36.241Z,3.33
2022-11-28T18:53:04.219Z,3.78
2022-11-28T18:55:32.526Z,3.28
2022-11-28T18:58:00.484Z,2.92
2022-11-28T19:00:28.531Z,2.75
2022-11-28T19:02:56.379Z,2.80
2022-11-28T19:05:25.464Z,3.05
2022-11-28T19:07:53.513Z,3.17
2022-11-28T19:10:21.462Z,2.75
2022-11-28T19:12:49.425Z,3.13
2022-11-28T19:15:17.225Z,3.60
2022-11-28T19:17:45.125Z,3.67
2022-11-28T19:20:13.753Z,3.50
2022-11-28T19:22:42.915Z,3.80
2022-11-28T19:25:11.584Z,3.35
2022-11-28T19:27:39.516Z,3.42
2022-11-28T19:30:08.898Z,3.50
2022-11-28T19:32:37.346Z,4.07
2022-11-28T19:40:02.993Z,2.45
2022-11-28T19:42:31.018Z,2.75
2022-11-28T19:44:58.816Z,3.95
2022-11-28T19:47:26.672Z,3.50
2022-11-28T19:49:54.647Z,3.65
2022-11-28T19:52:22.355Z,3.65
2022-11-28T19:54:50.175Z,4.60
2022-11-28T19:57:20.752Z,4.28
2022-11-28T19:59:48.614Z,3.10
2022-11-28T20:02:17.677Z,4.45
2022-11-28T20:04:45.464Z,3.47
2022-11-28T20:07:13.870Z,3.08
2022-11-28T20:14:38.924Z,2.63
2022-11-28T20:17:06.881Z,3.63
2022-11-28T20:19:34.740Z,3.72
2022-11-28T20:22:02.607Z,3.13
2022-11-28T20:24:30.622Z,4.13
2022-11-28T20:26:58.505Z,4.60
2022-11-28T20:29:27.884Z,3.13
2022-11-28T20:31:58.293Z,3.55
2022-11-28T20:34:26.945Z,4.20
2022-11-28T20:36:55.303Z,3.05
2022-11-28T20:39:23.472Z,3.85
2022-11-28T20:41:51.375Z,3.50
2022-11-28T20:44:19.541Z,3.70
2022-11-28T20:46:49.882Z,3.38
2022-11-28T20:49:19.835Z,2.95
2022-11-28T20:51:50.304Z,3.13
2022-11-28T20:54:18.178Z,3.47
2022-11-28T20:57:18.997Z,4.38
2022-11-28T20:59:35.318Z,2.92
2022-11-28T21:02:03.184Z,3.33
2022-11-28T21:04:32.758Z,4.15
2022-11-28T21:07:00.545Z,5.13
2022-11-28T21:09:28.367Z,3.80
2022-11-28T21:11:58.458Z,3.95
2022-11-28T21:14:28.316Z,3.63
2022-11-28T21:16:56.440Z,4.28
2022-11-28T21:19:24.575Z,3.88
2022-11-28T21:21:54.032Z,4.20
2022-11-28T21:24:21.909Z,3.05
2022-11-28T21:26:53.840Z,2.97
2022-11-28T21:29:23.478Z,3.58
2022-11-28T21:31:51.969Z,2.75
2022-11-28T21:34:19.935Z,2.70
2022-11-28T21:36:49.445Z,3.00
2022-11-28T21:39:22.083Z,2.95
2022-11-28T21:41:51.023Z,2.75
2022-11-28T21:44:19.051Z,2.08
2022-11-28T21:46:47.866Z,2.75
2022-11-28T21:49:15.909Z,3.55
2022-11-28T21:51:43.804Z,3.03
2022-11-28T21:54:12.554Z,3.55
2022-11-28T21:56:41.996Z,2.90
2022-11-28T21:59:10.121Z,3.28
2022-11-28T22:01:38.033Z,3.20
2022-11-28T22:04:06.419Z,1.80
2022-11-28T22:06:34.578Z,2.78
2022-11-28T22:09:09.038Z,2.35
2022-11-28T22:11:38.151Z,1.83
2022-11-28T22:16:35.636Z,2.30
2022-11-28T22:19:04.121Z,3.28
2022-11-28T22:24:19.786Z,1.80
2022-11-28T22:26:47.686Z,2.42
2022-11-28T22:29:17.100Z,2.30
2022-11-28T22:31:45.236Z,2.40
2022-11-28T22:34:13.539Z,2.28
2022-11-28T22:36:41.497Z,2.17
2022-11-28T22:39:11.265Z,2.05
2022-11-28T22:41:39.152Z,2.13
2022-11-28T22:44:07.167Z,2.00
2022-11-28T22:46:36.529Z,2.35
2022-11-28T22:49:04.799Z,2.13
2022-11-28T22:51:32.850Z,2.53
2022-11-28T22:54:02.361Z,2.10
2022-11-28T22:56:31.607Z,2.83
2022-11-28T22:58:59.932Z,2.97
2022-11-28T23:01:30.589Z,2.28
2022-11-28T23:04:00.272Z,3.30
2022-11-28T23:06:31.024Z,2.75
2022-11-28T23:09:01.033Z,3.00
2022-11-28T23:11:30.988Z,2.90
2022-11-28T23:14:00.204Z,2.22
2022-11-28T23:16:30.011Z,3.15
2022-11-28T23:19:01.744Z,2.28
2022-11-28T23:21:31.420Z,2.45
2022-11-28T23:23:59.501Z,2.78
2022-11-28T23:26:29.529Z,2.72
2022-11-28T23:29:00.018Z,1.77
2022-11-28T23:31:30.316Z,1.70
2022-11-28T23:34:00.782Z,1.38
2022-11-28T23:36:30.478Z,2.45
2022-11-28T23:38:59.934Z,1.55
2022-11-28T23:41:29.148Z,2.85
2022-11-28T23:43:57.368Z,2.00
2022-11-28T23:46:26.589Z,2.60
2022-11-28T23:48:54.795Z,3.35
2022-11-28T23:51:26.357Z,2.30
2022-11-28T23:53:54.747Z,3.33
2022-11-28T23:56:24.224Z,1.52
2022-11-28T23:58:52.922Z,2.17
